sensor_id;sensor_type;location;lat;lon;timestamp;temperature;humidity
16040;DHT22;8124;48.634;8.120;2022-10-16T00:01:22;19.80;99.90
16040;DHT22;8124;48.634;8.120;2022-10-16T00:06:26;19.90;99.90
16040;DHT22;8124;48.634;8.120;2022-10-16T00:11:31;19.90;99.90
16040;DHT22;8124;48.634;8.120;2022-10-16T00:16:37;20.00;99.90
16040;DHT22;8124;48.634;8.120;2022-10-16T00:21:40;20.00;99.90
16040;DHT22;8124;48.634;8.120;2022-10-16T00:26:43;20.00;99.90
16040;DHT22;8124;48.634;8.120;2022-10-16T00:31:48;20.00;99.90
16040;DHT22;8124;48.634;8.120;2022-10-16T00:36:51;20.00;99.90
16040;DHT22;8124;48.634;8.120;2022-10-16T00:41:54;20.00;99.90
16040;DHT22;8124;48.634;8.120;2022-10-16T00:46:58;20.00;99.90
16040;DHT22;8124;48.634;8.120;2022-10-16T00:52:02;20.00;99.90
16040;DHT22;8124;48.634;8.120;2022-10-16T00:57:06;20.00;99.90
16040;DHT22;8124;48.634;8.120;2022-10-16T01:02:13;20.10;99.90
16040;DHT22;8124;48.634;8.120;2022-10-16T01:07:25;20.00;99.90
16040;DHT22;8124;48.634;8.120;2022-10-16T01:12:37;20.00;99.90
16040;DHT22;8124;48.634;8.120;2022-10-16T01:17:53;20.00;99.90
16040;DHT22;8124;48.634;8.120;2022-10-16T01:23:06;20.00;99.90
16040;DHT22;8124;48.634;8.120;2022-10-16T01:28:13;20.00;99.90
16040;DHT22;8124;48.634;8.120;2022-10-16T01:33:20;20.00;99.90
16040;DHT22;8124;48.634;8.120;2022-10-16T01:38:33;20.00;99.90
16040;DHT22;8124;48.634;8.120;2022-10-16T01:43:43;20.00;99.90
16040;DHT22;8124;48.634;8.120;2022-10-16T01:48:48;20.00;99.90
16040;DHT22;8124;48.634;8.120;2022-10-16T01:53:55;20.00;99.90
16040;DHT22;8124;48.634;8.120;2022-10-16T01:59:04;20.00;99.90
16040;DHT22;8124;48.634;8.120;2022-10-16T02:04:10;20.00;99.90
16040;DHT22;8124;48.634;8.120;2022-10-16T02:09:16;19.90;99.90
16040;DHT22;8124;48.634;8.120;2022-10-16T02:14:21;19.80;99.90
16040;DHT22;8124;48.634;8.120;2022-10-16T02:19:26;19.80;99.90
16040;DHT22;8124;48.634;8.120;2022-10-16T02:24:33;19.80;99.90
16040;DHT22;8124;48.634;8.120;2022-10-16T02:29:42;19.80;99.90
16040;DHT22;8124;48.634;8.120;2022-10-16T02:34:48;19.70;99.90
16040;DHT22;8124;48.634;8.120;2022-10-16T02:39:52;19.30;99.90
16040;DHT22;8124;48.634;8.120;2022-10-16T02:44:56;19.30;99.90
16040;DHT22;8124;48.634;8.120;2022-10-16T02:50:00;19.10;99.90
16040;DHT22;8124;48.634;8.120;2022-10-16T02:55:04;19.00;99.90
16040;DHT22;8124;48.634;8.120;2022-10-16T03:00:11;19.00;99.90
16040;DHT22;8124;48.634;8.120;2022-10-16T03:05:15;18.90;99.90
16040;DHT22;8124;48.634;8.120;2022-10-16T03:10:18;18.80;99.90
16040;DHT22;8124;48.634;8.120;2022-10-16T03:15:23;18.80;99.90
16040;DHT22;8124;48.634;8.120;2022-10-16T03:20:26;18.90;99.90
16040;DHT22;8124;48.634;8.120;2022-10-16T03:25:29;18.90;99.90
16040;DHT22;8124;48.634;8.120;2022-10-16T03:30:33;18.80;99.90
16040;DHT22;8124;48.634;8.120;2022-10-16T03:35:36;18.90;99.90
16040;DHT22;8124;48.634;8.120;2022-10-16T03:40:39;19.00;99.90
16040;DHT22;8124;48.634;8.120;2022-10-16T03:45:44;19.10;99.90
16040;DHT22;8124;48.634;8.120;2022-10-16T03:50:47;19.10;99.90
16040;DHT22;8124;48.634;8.120;2022-10-16T03:55:50;19.20;99.90
16040;DHT22;8124;48.634;8.120;2022-10-16T04:00:54;19.20;99.90
16040;DHT22;8124;48.634;8.120;2022-10-16T04:05:57;19.30;99.90
16040;DHT22;8124;48.634;8.120;2022-10-16T04:11:00;19.10;99.90
16040;DHT22;8124;48.634;8.120;2022-10-16T04:16:05;18.60;99.90
16040;DHT22;8124;48.634;8.120;2022-10-16T04:21:34;18.30;99.90
16040;DHT22;8124;48.634;8.120;2022-10-16T04:26:37;18.00;99.90
16040;DHT22;8124;48.634;8.120;2022-10-16T04:31:42;17.90;99.90
16040;DHT22;8124;48.634;8.120;2022-10-16T04:36:47;18.10;99.90
16040;DHT22;8124;48.634;8.120;2022-10-16T04:41:50;18.20;99.90
16040;DHT22;8124;48.634;8.120;2022-10-16T04:46:54;18.10;99.90
16040;DHT22;8124;48.634;8.120;2022-10-16T04:51:58;18.20;99.90
16040;DHT22;8124;48.634;8.120;2022-10-16T04:57:00;18.10;99.90
16040;DHT22;8124;48.634;8.120;2022-10-16T05:02:05;18.10;99.90
16040;DHT22;8124;48.634;8.120;2022-10-16T05:07:08;18.20;99.90
16040;DHT22;8124;48.634;8.120;2022-10-16T05:12:11;17.90;99.90
16040;DHT22;8124;48.634;8.120;2022-10-16T05:17:15;18.00;99.90
16040;DHT22;8124;48.634;8.120;2022-10-16T05:22:19;18.20;99.90
16040;DHT22;8124;48.634;8.120;2022-10-16T05:27:21;18.30;99.90
16040;DHT22;8124;48.634;8.120;2022-10-16T05:32:27;18.50;99.90
16040;DHT22;8124;48.634;8.120;2022-10-16T05:37:30;18.50;99.90
16040;DHT22;8124;48.634;8.120;2022-10-16T05:42:33;18.40;99.90
16040;DHT22;8124;48.634;8.120;2022-10-16T05:47:38;18.40;99.90
16040;DHT22;8124;48.634;8.120;2022-10-16T05:52:41;18.40;99.90
16040;DHT22;8124;48.634;8.120;2022-10-16T05:57:44;18.50;99.90
16040;DHT22;8124;48.634;8.120;2022-10-16T06:02:48;18.50;99.90
16040;DHT22;8124;48.634;8.120;2022-10-16T06:07:51;18.40;99.90
16040;DHT22;8124;48.634;8.120;2022-10-16T06:12:54;18.50;99.90
16040;DHT22;8124;48.634;8.120;2022-10-16T06:17:59;18.50;99.90
16040;DHT22;8124;48.634;8.120;2022-10-16T06:23:02;18.50;99.90
16040;DHT22;8124;48.634;8.120;2022-10-16T06:28:05;18.30;99.90
16040;DHT22;8124;48.634;8.120;2022-10-16T06:33:10;18.10;99.90
16040;DHT22;8124;48.634;8.120;2022-10-16T06:38:44;18.10;99.90
16040;DHT22;8124;48.634;8.120;2022-10-16T06:43:47;18.00;99.90
16040;DHT22;8124;48.634;8.120;2022-10-16T06:48:52;18.10;99.90
16040;DHT22;8124;48.634;8.120;2022-10-16T06:53:56;18.10;99.90
16040;DHT22;8124;48.634;8.120;2022-10-16T06:59:04;18.30;99.90
16040;DHT22;8124;48.634;8.120;2022-10-16T07:04:09;18.20;99.90
16040;DHT22;8124;48.634;8.120;2022-10-16T07:09:12;18.30;99.90
16040;DHT22;8124;48.634;8.120;2022-10-16T07:14:17;18.40;99.90
16040;DHT22;8124;48.634;8.120;2022-10-16T07:19:22;18.40;99.90
16040;DHT22;8124;48.634;8.120;2022-10-16T07:24:29;18.50;99.90
16040;DHT22;8124;48.634;8.120;2022-10-16T07:29:32;18.60;99.90
16040;DHT22;8124;48.634;8.120;2022-10-16T07:34:36;18.70;99.90
16040;DHT22;8124;48.634;8.120;2022-10-16T07:39:39;18.80;99.90
16040;DHT22;8124;48.634;8.120;2022-10-16T07:44:42;18.90;99.90
16040;DHT22;8124;48.634;8.120;2022-10-16T07:49:47;18.80;99.90
16040;DHT22;8124;48.634;8.120;2022-10-16T07:54:50;18.70;99.90
16040;DHT22;8124;48.634;8.120;2022-10-16T07:59:53;18.60;99.90
16040;DHT22;8124;48.634;8.120;2022-10-16T08:04:57;18.60;99.90
16040;DHT22;8124;48.634;8.120;2022-10-16T08:10:00;18.70;99.90
16040;DHT22;8124;48.634;8.120;2022-10-16T08:15:04;18.80;99.90
16040;DHT22;8124;48.634;8.120;2022-10-16T08:20:10;18.90;99.90
16040;DHT22;8124;48.634;8.120;2022-10-16T08:25:13;18.70;99.90
16040;DHT22;8124;48.634;8.120;2022-10-16T08:30:18;18.90;99.90
16040;DHT22;8124;48.634;8.120;2022-10-16T08:35:23;19.20;99.90
16040;DHT22;8124;48.634;8.120;2022-10-16T08:40:29;19.40;99.90
16040;DHT22;8124;48.634;8.120;2022-10-16T08:45:43;19.50;99.90
16040;DHT22;8124;48.634;8.120;2022-10-16T08:50:51;19.80;99.90
16040;DHT22;8124;48.634;8.120;2022-10-16T08:55:54;20.00;99.90
16040;DHT22;8124;48.634;8.120;2022-10-16T09:01:00;20.20;99.90
16040;DHT22;8124;48.634;8.120;2022-10-16T09:06:16;20.20;99.90
16040;DHT22;8124;48.634;8.120;2022-10-16T09:11:29;20.40;99.90
16040;DHT22;8124;48.634;8.120;2022-10-16T09:16:36;20.80;99.90
16040;DHT22;8124;48.634;8.120;2022-10-16T09:21:44;21.10;99.90
16040;DHT22;8124;48.634;8.120;2022-10-16T09:26:49;21.10;99.90
16040;DHT22;8124;48.634;8.120;2022-10-16T09:31:53;21.10;99.90
16040;DHT22;8124;48.634;8.120;2022-10-16T09:37:14;21.10;99.90
16040;DHT22;8124;48.634;8.120;2022-10-16T09:42:21;21.10;99.90
16040;DHT22;8124;48.634;8.120;2022-10-16T09:47:27;21.00;99.90
16040;DHT22;8124;48.634;8.120;2022-10-16T09:52:33;21.00;99.90
16040;DHT22;8124;48.634;8.120;2022-10-16T09:57:52;21.00;99.90
16040;DHT22;8124;48.634;8.120;2022-10-16T10:02:55;21.00;99.90
16040;DHT22;8124;48.634;8.120;2022-10-16T10:08:03;21.10;99.90
16040;DHT22;8124;48.634;8.120;2022-10-16T10:13:17;21.10;99.90
16040;DHT22;8124;48.634;8.120;2022-10-16T10:18:22;21.20;99.90
16040;DHT22;8124;48.634;8.120;2022-10-16T10:23:28;21.30;99.90
16040;DHT22;8124;48.634;8.120;2022-10-16T10:28:59;21.40;99.90
16040;DHT22;8124;48.634;8.120;2022-10-16T10:34:19;21.40;99.90
16040;DHT22;8124;48.634;8.120;2022-10-16T10:39:34;21.50;99.90
16040;DHT22;8124;48.634;8.120;2022-10-16T10:45:01;21.60;99.90
16040;DHT22;8124;48.634;8.120;2022-10-16T10:50:11;21.70;99.90
16040;DHT22;8124;48.634;8.120;2022-10-16T10:55:24;21.80;99.90
16040;DHT22;8124;48.634;8.120;2022-10-16T11:00:33;21.90;99.90
16040;DHT22;8124;48.634;8.120;2022-10-16T11:05:44;22.00;99.90
16040;DHT22;8124;48.634;8.120;2022-10-16T11:10:54;21.90;99.90
16040;DHT22;8124;48.634;8.120;2022-10-16T11:16:00;21.90;99.90
16040;DHT22;8124;48.634;8.120;2022-10-16T11:21:08;22.10;99.90
16040;DHT22;8124;48.634;8.120;2022-10-16T11:26:18;22.00;99.90
16040;DHT22;8124;48.634;8.120;2022-10-16T11:31:28;22.10;99.90
16040;DHT22;8124;48.634;8.120;2022-10-16T11:36:36;22.30;99.90
16040;DHT22;8124;48.634;8.120;2022-10-16T11:42:04;22.40;99.90
16040;DHT22;8124;48.634;8.120;2022-10-16T11:47:19;22.60;99.90
16040;DHT22;8124;48.634;8.120;2022-10-16T11:52:53;22.50;99.90
16040;DHT22;8124;48.634;8.120;2022-10-16T11:58:03;22.60;99.90
16040;DHT22;8124;48.634;8.120;2022-10-16T12:03:20;22.80;99.90
16040;DHT22;8124;48.634;8.120;2022-10-16T12:08:27;22.90;99.90
16040;DHT22;8124;48.634;8.120;2022-10-16T12:13:37;23.00;99.90
16040;DHT22;8124;48.634;8.120;2022-10-16T12:18:42;22.80;99.90
16040;DHT22;8124;48.634;8.120;2022-10-16T12:23:50;23.00;99.90
16040;DHT22;8124;48.634;8.120;2022-10-16T12:29:14;23.00;99.90
16040;DHT22;8124;48.634;8.120;2022-10-16T12:34:34;23.00;99.90
16040;DHT22;8124;48.634;8.120;2022-10-16T12:39:55;23.10;99.90
16040;DHT22;8124;48.634;8.120;2022-10-16T12:45:29;23.20;99.90
16040;DHT22;8124;48.634;8.120;2022-10-16T12:50:36;23.20;99.90
16040;DHT22;8124;48.634;8.120;2022-10-16T12:55:49;23.30;99.90
16040;DHT22;8124;48.634;8.120;2022-10-16T13:01:00;23.40;99.90
16040;DHT22;8124;48.634;8.120;2022-10-16T13:06:15;23.40;99.90
16040;DHT22;8124;48.634;8.120;2022-10-16T13:11:29;23.40;99.90
16040;DHT22;8124;48.634;8.120;2022-10-16T13:17:21;23.60;99.90
16040;DHT22;8124;48.634;8.120;2022-10-16T13:22:32;23.50;99.90
16040;DHT22;8124;48.634;8.120;2022-10-16T13:27:43;23.70;99.90
16040;DHT22;8124;48.634;8.120;2022-10-16T13:32:54;23.90;99.90
16040;DHT22;8124;48.634;8.120;2022-10-16T13:38:12;23.80;99.90
16040;DHT22;8124;48.634;8.120;2022-10-16T13:43:22;24.00;99.90
16040;DHT22;8124;48.634;8.120;2022-10-16T13:54:09;24.20;99.90
16040;DHT22;8124;48.634;8.120;2022-10-16T13:59:33;24.10;99.90
16040;DHT22;8124;48.634;8.120;2022-10-16T14:04:39;24.00;99.90
16040;DHT22;8124;48.634;8.120;2022-10-16T14:10:01;24.20;99.90
16040;DHT22;8124;48.634;8.120;2022-10-16T14:15:17;24.10;99.90
16040;DHT22;8124;48.634;8.120;2022-10-16T14:20:28;24.20;99.90
16040;DHT22;8124;48.634;8.120;2022-10-16T14:25:34;24.20;99.90
16040;DHT22;8124;48.634;8.120;2022-10-16T14:30:52;24.20;99.90
16040;DHT22;8124;48.634;8.120;2022-10-16T14:36:02;24.10;99.90
16040;DHT22;8124;48.634;8.120;2022-10-16T14:41:09;24.00;99.90
16040;DHT22;8124;48.634;8.120;2022-10-16T14:46:45;24.00;99.90
16040;DHT22;8124;48.634;8.120;2022-10-16T14:51:57;24.10;99.90
16040;DHT22;8124;48.634;8.120;2022-10-16T14:57:12;24.20;99.90
16040;DHT22;8124;48.634;8.120;2022-10-16T15:02:33;24.10;99.90
16040;DHT22;8124;48.634;8.120;2022-10-16T15:07:48;24.10;99.90
16040;DHT22;8124;48.634;8.120;2022-10-16T15:13:05;24.20;99.90
16040;DHT22;8124;48.634;8.120;2022-10-16T15:18:11;24.20;99.90
16040;DHT22;8124;48.634;8.120;2022-10-16T15:23:25;24.30;99.90
16040;DHT22;8124;48.634;8.120;2022-10-16T15:28:30;24.40;99.90
16040;DHT22;8124;48.634;8.120;2022-10-16T15:33:35;24.30;99.90
16040;DHT22;8124;48.634;8.120;2022-10-16T15:38:41;24.30;99.90
16040;DHT22;8124;48.634;8.120;2022-10-16T15:43:49;24.20;99.90
16040;DHT22;8124;48.634;8.120;2022-10-16T15:48:57;24.20;99.90
16040;DHT22;8124;48.634;8.120;2022-10-16T15:54:02;24.10;99.90
16040;DHT22;8124;48.634;8.120;2022-10-16T15:59:07;24.00;99.90
16040;DHT22;8124;48.634;8.120;2022-10-16T16:04:13;23.90;99.90
16040;DHT22;8124;48.634;8.120;2022-10-16T16:09:39;23.90;99.90
16040;DHT22;8124;48.634;8.120;2022-10-16T16:14:43;23.80;99.90
16040;DHT22;8124;48.634;8.120;2022-10-16T16:19:50;23.70;99.90
16040;DHT22;8124;48.634;8.120;2022-10-16T16:24:53;23.60;99.90
16040;DHT22;8124;48.634;8.120;2022-10-16T16:30:01;23.40;99.90
16040;DHT22;8124;48.634;8.120;2022-10-16T16:35:06;23.30;99.90
16040;DHT22;8124;48.634;8.120;2022-10-16T16:40:11;23.20;99.90
16040;DHT22;8124;48.634;8.120;2022-10-16T16:45:15;23.00;99.90
16040;DHT22;8124;48.634;8.120;2022-10-16T16:50:19;22.90;99.90
16040;DHT22;8124;48.634;8.120;2022-10-16T16:55:24;22.70;99.90
16040;DHT22;8124;48.634;8.120;2022-10-16T17:00:29;22.60;99.90
16040;DHT22;8124;48.634;8.120;2022-10-16T17:05:35;22.50;99.90
16040;DHT22;8124;48.634;8.120;2022-10-16T17:10:42;22.40;99.90
16040;DHT22;8124;48.634;8.120;2022-10-16T17:15:49;22.30;99.90
16040;DHT22;8124;48.634;8.120;2022-10-16T17:20:53;22.20;99.90
16040;DHT22;8124;48.634;8.120;2022-10-16T17:26:02;22.00;99.90
16040;DHT22;8124;48.634;8.120;2022-10-16T17:31:20;21.90;99.90
16040;DHT22;8124;48.634;8.120;2022-10-16T17:36:26;21.80;99.90
16040;DHT22;8124;48.634;8.120;2022-10-16T17:41:32;21.80;99.90
16040;DHT22;8124;48.634;8.120;2022-10-16T17:46:38;21.70;99.90
16040;DHT22;8124;48.634;8.120;2022-10-16T17:51:42;21.60;99.90
16040;DHT22;8124;48.634;8.120;2022-10-16T17:56:45;21.60;99.90
16040;DHT22;8124;48.634;8.120;2022-10-16T18:01:52;21.50;99.90
16040;DHT22;8124;48.634;8.120;2022-10-16T18:06:55;21.30;99.90
16040;DHT22;8124;48.634;8.120;2022-10-16T18:12:00;21.20;99.90
16040;DHT22;8124;48.634;8.120;2022-10-16T18:17:05;21.00;99.90
16040;DHT22;8124;48.634;8.120;2022-10-16T18:22:18;21.00;99.90
16040;DHT22;8124;48.634;8.120;2022-10-16T18:27:21;21.10;99.90
16040;DHT22;8124;48.634;8.120;2022-10-16T18:32:26;20.90;99.90
16040;DHT22;8124;48.634;8.120;2022-10-16T18:37:29;20.50;99.90
16040;DHT22;8124;48.634;8.120;2022-10-16T18:42:33;20.30;99.90
16040;DHT22;8124;48.634;8.120;2022-10-16T18:47:38;20.30;99.90
16040;DHT22;8124;48.634;8.120;2022-10-16T18:52:46;20.10;99.90
16040;DHT22;8124;48.634;8.120;2022-10-16T18:57:49;20.30;99.90
16040;DHT22;8124;48.634;8.120;2022-10-16T19:02:53;20.30;99.90
16040;DHT22;8124;48.634;8.120;2022-10-16T19:07:57;20.00;99.90
16040;DHT22;8124;48.634;8.120;2022-10-16T19:13:00;20.00;99.90
16040;DHT22;8124;48.634;8.120;2022-10-16T19:18:07;20.00;99.90
16040;DHT22;8124;48.634;8.120;2022-10-16T19:23:10;20.10;99.90
16040;DHT22;8124;48.634;8.120;2022-10-16T19:28:28;20.10;99.90
16040;DHT22;8124;48.634;8.120;2022-10-16T19:33:36;20.00;99.90
16040;DHT22;8124;48.634;8.120;2022-10-16T19:38:40;20.00;99.90
16040;DHT22;8124;48.634;8.120;2022-10-16T19:43:43;20.00;99.90
16040;DHT22;8124;48.634;8.120;2022-10-16T19:48:52;20.10;99.90
16040;DHT22;8124;48.634;8.120;2022-10-16T19:53:56;20.10;99.90
16040;DHT22;8124;48.634;8.120;2022-10-16T19:59:00;20.10;99.90
16040;DHT22;8124;48.634;8.120;2022-10-16T20:04:04;20.10;99.90
16040;DHT22;8124;48.634;8.120;2022-10-16T20:09:07;20.00;99.90
16040;DHT22;8124;48.634;8.120;2022-10-16T20:14:10;19.90;99.90
16040;DHT22;8124;48.634;8.120;2022-10-16T20:19:15;19.80;99.90
16040;DHT22;8124;48.634;8.120;2022-10-16T20:24:18;19.80;99.90
16040;DHT22;8124;48.634;8.120;2022-10-16T20:29:21;19.70;99.90
16040;DHT22;8124;48.634;8.120;2022-10-16T20:34:25;19.60;99.90
16040;DHT22;8124;48.634;8.120;2022-10-16T20:39:28;19.80;99.90
16040;DHT22;8124;48.634;8.120;2022-10-16T20:44:32;19.70;99.90
16040;DHT22;8124;48.634;8.120;2022-10-16T20:49:37;19.50;99.90
16040;DHT22;8124;48.634;8.120;2022-10-16T20:54:43;19.70;99.90
16040;DHT22;8124;48.634;8.120;2022-10-16T20:59:47;19.70;99.90
16040;DHT22;8124;48.634;8.120;2022-10-16T21:04:56;19.50;99.90
16040;DHT22;8124;48.634;8.120;2022-10-16T21:09:59;19.20;99.90
16040;DHT22;8124;48.634;8.120;2022-10-16T21:15:03;19.00;99.90
16040;DHT22;8124;48.634;8.120;2022-10-16T21:20:23;19.10;99.90
16040;DHT22;8124;48.634;8.120;2022-10-16T21:25:26;19.10;99.90
16040;DHT22;8124;48.634;8.120;2022-10-16T21:30:29;19.20;99.90
16040;DHT22;8124;48.634;8.120;2022-10-16T21:35:33;19.20;99.90
16040;DHT22;8124;48.634;8.120;2022-10-16T21:40:36;19.30;99.90
16040;DHT22;8124;48.634;8.120;2022-10-16T21:45:39;19.30;99.90
16040;DHT22;8124;48.634;8.120;2022-10-16T21:50:47;19.10;99.90
16040;DHT22;8124;48.634;8.120;2022-10-16T21:55:50;18.90;99.90
16040;DHT22;8124;48.634;8.120;2022-10-16T22:00:53;18.60;99.90
16040;DHT22;8124;48.634;8.120;2022-10-16T22:06:01;18.70;99.90
16040;DHT22;8124;48.634;8.120;2022-10-16T22:11:09;18.70;99.90
16040;DHT22;8124;48.634;8.120;2022-10-16T22:16:12;18.40;99.90
16040;DHT22;8124;48.634;8.120;2022-10-16T22:21:16;18.40;99.90
16040;DHT22;8124;48.634;8.120;2022-10-16T22:26:19;18.50;99.90
16040;DHT22;8124;48.634;8.120;2022-10-16T22:31:22;18.50;99.90
16040;DHT22;8124;48.634;8.120;2022-10-16T22:36:28;18.60;99.90
16040;DHT22;8124;48.634;8.120;2022-10-16T22:41:31;18.30;99.90
16040;DHT22;8124;48.634;8.120;2022-10-16T22:46:34;18.30;99.90
16040;DHT22;8124;48.634;8.120;2022-10-16T22:51:38;18.40;99.90
16040;DHT22;8124;48.634;8.120;2022-10-16T22:56:41;18.30;99.90
16040;DHT22;8124;48.634;8.120;2022-10-16T23:02:09;18.10;99.90
16040;DHT22;8124;48.634;8.120;2022-10-16T23:07:13;18.20;99.90
16040;DHT22;8124;48.634;8.120;2022-10-16T23:12:16;18.30;99.90
16040;DHT22;8124;48.634;8.120;2022-10-16T23:17:20;18.30;99.90
16040;DHT22;8124;48.634;8.120;2022-10-16T23:22:24;18.30;99.90
16040;DHT22;8124;48.634;8.120;2022-10-16T23:27:28;18.30;99.90
16040;DHT22;8124;48.634;8.120;2022-10-16T23:32:31;18.00;99.90
16040;DHT22;8124;48.634;8.120;2022-10-16T23:37:35;18.10;99.90
16040;DHT22;8124;48.634;8.120;2022-10-16T23:42:38;18.00;99.90
16040;DHT22;8124;48.634;8.120;2022-10-16T23:47:53;17.80;99.90
16040;DHT22;8124;48.634;8.120;2022-10-16T23:52:58;17.90;99.90
16040;DHT22;8124;48.634;8.120;2022-10-16T23:58:00;18.10;99.90
